createdAt,value
2018-03-07T00:01:18.996Z,99644.39
2018-03-07T00:04:22.154Z,99645.94
2018-03-07T00:07:25.408Z,99647.24
2018-03-07T00:10:28.673Z,99645.84
2018-03-07T00:13:31.937Z,99648.85
2018-03-07T00:16:35.212Z,99649.93
2018-03-07T00:19:38.430Z,99653.65
2018-03-07T00:22:41.705Z,99652.79
2018-03-07T00:25:44.984Z,99655.50
2018-03-07T00:28:48.172Z,99656.34
2018-03-07T00:31:51.466Z,99656.55
2018-03-07T00:34:54.668Z,99658.91
2018-03-07T00:37:57.941Z,99658.48
2018-03-07T00:41:01.181Z,99658.30
2018-03-07T00:44:05.054Z,99659.37
2018-03-07T00:47:08.618Z,99654.68
2018-03-07T00:50:11.924Z,99655.38
2018-03-07T00:53:15.276Z,99655.25
2018-03-07T00:56:18.505Z,99655.78
2018-03-07T00:59:21.794Z,99656.27
2018-03-07T01:02:24.934Z,99656.85
2018-03-07T01:05:28.801Z,99656.01
2018-03-07T01:08:32.094Z,99662.43
2018-03-07T01:11:35.559Z,99657.74
2018-03-07T01:14:40.497Z,99661.27
2018-03-07T01:17:43.709Z,99663.40
2018-03-07T01:20:46.945Z,99666.45
2018-03-07T01:23:50.245Z,99662.16
2018-03-07T01:26:53.788Z,99663.93
2018-03-07T01:29:57.108Z,99664.35
2018-03-07T01:33:00.325Z,99667.49
2018-03-07T01:36:03.842Z,99666.10
2018-03-07T01:39:07.137Z,99663.16
2018-03-07T01:42:10.953Z,99664.81
2018-03-07T01:45:14.283Z,99667.41
2018-03-07T01:48:17.701Z,99667.57
2018-03-07T01:51:21.397Z,99664.47
2018-03-07T01:54:24.576Z,99665.79
2018-03-07T01:57:27.840Z,99668.46
2018-03-07T02:00:46.919Z,99667.41
2018-03-07T02:04:14.399Z,99662.28
2018-03-07T02:07:37.818Z,99662.70
2018-03-07T02:11:00.244Z,99665.67
2018-03-07T02:14:08.317Z,99664.52
2018-03-07T02:17:26.111Z,99670.27
2018-03-07T02:20:51.468Z,99665.66
2018-03-07T02:27:50.411Z,99671.21
2018-03-07T02:31:24.375Z,99668.59
2018-03-07T02:34:32.040Z,99674.64
2018-03-07T02:37:46.934Z,99678.05
2018-03-07T02:41:03.269Z,99682.55
2018-03-07T02:44:14.931Z,99684.53
2018-03-07T02:47:38.563Z,99688.21
2018-03-07T02:50:53.987Z,99689.08
2018-03-07T02:54:14.892Z,99693.41
2018-03-07T02:57:18.166Z,99693.04
2018-03-07T03:00:21.771Z,99698.98
2018-03-07T03:03:25.034Z,99697.98
2018-03-07T03:06:28.174Z,99705.40
2018-03-07T03:09:31.603Z,99711.20
2018-03-07T03:12:34.795Z,99711.55
2018-03-07T03:15:38.109Z,99713.54
2018-03-07T03:18:41.413Z,99708.50
2018-03-07T03:21:44.709Z,99710.79
2018-03-07T03:24:47.912Z,99718.49
2018-03-07T03:27:51.221Z,99713.66
2018-03-07T03:30:54.499Z,99707.98
2018-03-07T03:33:57.878Z,99718.45
2018-03-07T03:37:01.001Z,99724.02
2018-03-07T03:40:04.324Z,99724.28
2018-03-07T03:43:07.537Z,99722.70
2018-03-07T03:46:10.731Z,99724.00
2018-03-07T03:49:13.985Z,99729.65
2018-03-07T03:52:17.194Z,99731.92
2018-03-07T03:55:20.422Z,99725.91
2018-03-07T03:58:23.585Z,99728.80
2018-03-07T04:01:26.804Z,99726.10
2018-03-07T04:04:30.045Z,99717.66
2018-03-07T04:07:33.438Z,99722.94
2018-03-07T04:10:36.760Z,99720.61
2018-03-07T04:13:40.003Z,99716.97
2018-03-07T04:16:43.260Z,99713.06
2018-03-07T04:19:46.551Z,99712.59
2018-03-07T04:22:49.951Z,99726.86
2018-03-07T04:25:53.185Z,99734.76
2018-03-07T04:28:56.372Z,99744.49
2018-03-07T04:31:59.660Z,99738.77
2018-03-07T04:35:02.961Z,99747.40
2018-03-07T04:38:06.223Z,99736.66
2018-03-07T04:41:09.578Z,99738.93
2018-03-07T04:44:12.814Z,99751.01
2018-03-07T04:47:16.040Z,99763.46
2018-03-07T04:50:19.311Z,99762.06
2018-03-07T04:53:22.638Z,99772.67
2018-03-07T04:56:25.909Z,99767.52
2018-03-07T04:59:29.207Z,99771.20
2018-03-07T05:02:32.514Z,99774.52
2018-03-07T05:05:35.762Z,99770.66
2018-03-07T05:08:38.992Z,99773.72
2018-03-07T05:11:42.286Z,99775.57
2018-03-07T05:14:45.542Z,99775.68
2018-03-07T05:17:48.879Z,99776.70
2018-03-07T05:20:52.086Z,99779.11
2018-03-07T05:23:55.383Z,99781.33
2018-03-07T05:26:58.678Z,99783.31
2018-03-07T05:30:01.998Z,99791.39
2018-03-07T05:33:05.207Z,99784.59
2018-03-07T05:36:08.440Z,99791.08
2018-03-07T05:39:11.663Z,99788.88
2018-03-07T05:42:14.957Z,99796.59
2018-03-07T05:45:18.245Z,99791.94
2018-03-07T05:48:21.609Z,99796.99
2018-03-07T05:51:24.861Z,99796.47
2018-03-07T05:54:29.223Z,99798.64
2018-03-07T05:57:32.509Z,99798.30
2018-03-07T06:00:36.237Z,99801.69
2018-03-07T06:03:39.534Z,99807.11
2018-03-07T06:06:42.848Z,99807.21
2018-03-07T06:09:46.049Z,99806.34
2018-03-07T06:12:49.441Z,99804.51
2018-03-07T06:15:52.690Z,99813.66
2018-03-07T06:18:55.938Z,99822.45
2018-03-07T06:21:59.085Z,99825.68
2018-03-07T06:25:02.283Z,99831.33
2018-03-07T06:28:05.490Z,99835.14
2018-03-07T06:31:08.758Z,99844.52
2018-03-07T06:34:12.047Z,99842.50
2018-03-07T06:37:15.339Z,99849.98
2018-03-07T06:40:18.639Z,99853.09
2018-03-07T06:43:22.004Z,99863.27
2018-03-07T06:46:25.282Z,99862.29
2018-03-07T06:49:28.477Z,99866.09
2018-03-07T06:52:31.742Z,99872.03
2018-03-07T06:55:34.998Z,99873.22
2018-03-07T06:58:38.454Z,99884.98
2018-03-07T07:01:41.618Z,99887.50
2018-03-07T07:04:44.860Z,99895.50
2018-03-07T07:07:48.135Z,99896.54
2018-03-07T07:10:51.645Z,99906.69
2018-03-07T07:13:54.835Z,99913.35
2018-03-07T07:16:58.147Z,99911.14
2018-03-07T07:20:01.343Z,99909.14
2018-03-07T07:23:04.583Z,99918.73
2018-03-07T07:26:07.819Z,99918.14
2018-03-07T07:29:11.032Z,99921.83
2018-03-07T07:32:14.461Z,99926.60
2018-03-07T07:35:17.694Z,99922.95
2018-03-07T07:38:20.972Z,99930.37
2018-03-07T07:41:24.293Z,99932.33
2018-03-07T07:44:27.578Z,99936.92
2018-03-07T07:47:30.894Z,99937.41
2018-03-07T07:50:34.189Z,99934.30
2018-03-07T07:53:37.385Z,99942.35
2018-03-07T07:56:40.658Z,99943.82
2018-03-07T07:59:43.905Z,99948.50
2018-03-07T08:02:47.317Z,99944.46
2018-03-07T08:05:50.579Z,99948.48
2018-03-07T08:08:53.778Z,99951.45
2018-03-07T08:11:57.730Z,99954.52
2018-03-07T08:15:00.962Z,99960.51
2018-03-07T08:18:04.307Z,99956.84
2018-03-07T08:21:07.494Z,99962.66
2018-03-07T08:24:10.747Z,99967.11
2018-03-07T08:27:14.043Z,99966.97
2018-03-07T08:30:17.346Z,99967.19
2018-03-07T08:33:20.746Z,99967.19
2018-03-07T08:36:24.045Z,99966.77
2018-03-07T08:39:27.341Z,99969.51
2018-03-07T08:42:30.634Z,99968.06
2018-03-07T08:45:33.883Z,99976.48
2018-03-07T08:48:37.141Z,99976.71
2018-03-07T08:51:40.935Z,99985.34
2018-03-07T08:54:44.251Z,99991.73
2018-03-07T08:57:47.562Z,99986.94
2018-03-07T09:00:50.851Z,99991.90
2018-03-07T09:03:54.129Z,99999.69
2018-03-07T09:06:57.434Z,100001.29
2018-03-07T09:10:00.637Z,100000.53
2018-03-07T09:13:03.972Z,100006.01
2018-03-07T09:16:07.226Z,100007.67
2018-03-07T09:19:11.097Z,100014.73
2018-03-07T09:22:14.334Z,100021.11
2018-03-07T09:25:17.657Z,100030.71
2018-03-07T09:28:20.859Z,100029.21
2018-03-07T09:31:24.026Z,100027.29
2018-03-07T09:34:27.232Z,100026.67
2018-03-07T09:37:30.614Z,100034.55
2018-03-07T09:40:33.812Z,100032.24
2018-03-07T09:43:37.146Z,100031.02
2018-03-07T09:46:40.405Z,100025.48
2018-03-07T09:49:43.610Z,100027.74
2018-03-07T09:52:46.896Z,100028.17
2018-03-07T09:55:50.224Z,100029.91
2018-03-07T09:58:53.495Z,100022.91
2018-03-07T10:01:56.726Z,100021.65
2018-03-07T10:04:59.902Z,100026.07
2018-03-07T10:08:03.181Z,100019.07
2018-03-07T10:11:06.481Z,100022.52
2018-03-07T10:14:09.855Z,100027.12
2018-03-07T10:17:13.218Z,100024.67
2018-03-07T10:20:16.420Z,100028.43
2018-03-07T10:23:19.679Z,100026.28
2018-03-07T10:26:22.970Z,100032.65
2018-03-07T10:29:26.292Z,100033.46
2018-03-07T10:32:29.624Z,100038.84
2018-03-07T10:35:33.331Z,100044.61
2018-03-07T10:38:36.574Z,100046.88
2018-03-07T10:41:39.801Z,100046.59
2018-03-07T10:44:43.078Z,100048.28
2018-03-07T10:47:46.354Z,100040.61
2018-03-07T10:50:49.858Z,100049.19
2018-03-07T10:53:53.104Z,100052.30
2018-03-07T10:56:56.326Z,100047.91
2018-03-07T10:59:59.495Z,100050.91
2018-03-07T11:03:02.801Z,100054.27
2018-03-07T11:06:06.057Z,100038.57
2018-03-07T11:09:09.338Z,100046.73
2018-03-07T11:12:12.663Z,100046.63
2018-03-07T11:15:15.950Z,100045.73
2018-03-07T11:18:19.277Z,100041.09
2018-03-07T11:21:22.562Z,100041.48
2018-03-07T11:24:25.845Z,100049.10
2018-03-07T11:27:29.151Z,100058.89
2018-03-07T11:30:32.370Z,100040.29
2018-03-07T11:33:35.728Z,100037.61
2018-03-07T11:36:38.930Z,100038.14
2018-03-07T11:39:42.809Z,100036.38
2018-03-07T11:42:46.123Z,100028.18
2018-03-07T11:45:49.330Z,100032.73
2018-03-07T11:48:52.616Z,100038.97
2018-03-07T11:51:55.919Z,100019.69
2018-03-07T11:54:59.121Z,100017.52
2018-03-07T11:58:02.354Z,100016.78
2018-03-07T12:01:05.700Z,100022.27
2018-03-07T12:04:09.003Z,100026.49
2018-03-07T12:07:12.299Z,100029.79
2018-03-07T12:10:15.638Z,100032.39
2018-03-07T12:13:18.882Z,100042.14
2018-03-07T12:16:22.187Z,100027.30
2018-03-07T12:19:25.523Z,100028.10
2018-03-07T12:22:28.786Z,100035.63
2018-03-07T12:25:32.101Z,100031.70
2018-03-07T12:28:35.669Z,100041.04
2018-03-07T12:31:38.978Z,100032.84
2018-03-07T12:34:42.180Z,100030.49
2018-03-07T12:37:45.469Z,100035.47
2018-03-07T12:40:48.713Z,100023.36
2018-03-07T12:43:51.966Z,100027.11
2018-03-07T12:46:55.186Z,100029.70
2018-03-07T12:49:58.550Z,100044.90
2018-03-07T12:53:01.857Z,100035.87
2018-03-07T12:56:05.437Z,100041.40
2018-03-07T12:59:08.653Z,100035.05
2018-03-07T13:02:12.830Z,100037.72
2018-03-07T13:05:16.812Z,100041.55
2018-03-07T13:08:27.880Z,100041.75
2018-03-07T13:11:31.454Z,100037.97
2018-03-07T13:14:34.928Z,100048.90
2018-03-07T13:17:38.560Z,100047.75
2018-03-07T13:20:41.901Z,100048.98
2018-03-07T13:23:45.160Z,100053.02
2018-03-07T13:26:48.365Z,100044.07
2018-03-07T13:29:52.584Z,100055.83
2018-03-07T13:32:55.886Z,100053.78
2018-03-07T13:36:00.314Z,100059.10
2018-03-07T13:39:03.575Z,100056.32
2018-03-07T13:42:06.850Z,100049.54
2018-03-07T13:45:10.019Z,100054.21
2018-03-07T13:48:13.356Z,100065.86
2018-03-07T13:51:16.729Z,100051.31
2018-03-07T13:54:19.988Z,100056.57
2018-03-07T13:57:23.285Z,100056.35
2018-03-07T14:00:26.598Z,100044.40
2018-03-07T14:03:29.905Z,100049.72
2018-03-07T14:06:33.126Z,100049.90
2018-03-07T14:09:36.323Z,100046.13
2018-03-07T14:12:39.692Z,100042.46
2018-03-07T14:15:43.017Z,100041.92
2018-03-07T14:18:47.027Z,100033.89
2018-03-07T14:21:50.571Z,100036.13
2018-03-07T14:24:53.835Z,100041.69
2018-03-07T14:27:57.084Z,100042.11
2018-03-07T14:31:00.455Z,100052.22
2018-03-07T14:34:03.722Z,100053.48
2018-03-07T14:37:06.941Z,100055.31
2018-03-07T14:40:10.129Z,100052.91
2018-03-07T14:43:13.336Z,100046.79
2018-03-07T14:46:17.649Z,100038.45
2018-03-07T14:49:21.127Z,100033.35
2018-03-07T14:52:24.652Z,100036.47
2018-03-07T14:55:28.072Z,100039.65
2018-03-07T14:58:32.639Z,100035.68
2018-03-07T15:01:35.894Z,100048.02
2018-03-07T15:04:39.133Z,100054.14
2018-03-07T15:07:46.094Z,100061.49
2018-03-07T15:10:52.966Z,100066.37
2018-03-07T15:13:56.207Z,100070.67
2018-03-07T15:16:59.576Z,100073.20
2018-03-07T15:20:02.906Z,100073.67
2018-03-07T15:23:06.328Z,100083.91
2018-03-07T15:26:09.580Z,100121.00
2018-03-07T15:29:12.920Z,100132.95
2018-03-07T15:32:16.192Z,100128.81
2018-03-07T15:35:19.491Z,100137.30
2018-03-07T15:38:22.799Z,100144.38
2018-03-07T15:41:26.062Z,100141.84
2018-03-07T15:44:29.487Z,100151.70
2018-03-07T15:47:32.888Z,100158.56
2018-03-07T15:50:36.777Z,100162.67
2018-03-07T15:53:40.077Z,100169.16
2018-03-07T15:56:43.393Z,100164.40
2018-03-07T15:59:46.582Z,100173.80
2018-03-07T16:02:49.917Z,100168.37
2018-03-07T16:05:53.083Z,100182.21
2018-03-07T16:08:56.242Z,100177.98
2018-03-07T16:11:59.776Z,100180.92
2018-03-07T16:15:03.086Z,100180.51
2018-03-07T16:18:06.906Z,100183.08
2018-03-07T16:21:10.116Z,100190.80
2018-03-07T16:24:13.474Z,100188.81
2018-03-07T16:27:16.813Z,100192.50
2018-03-07T16:30:20.067Z,100193.69
2018-03-07T16:33:23.907Z,100188.34
2018-03-07T16:36:27.336Z,100200.39
2018-03-07T16:39:30.642Z,100200.19
2018-03-07T16:42:33.968Z,100204.70
2018-03-07T16:45:37.416Z,100209.23
2018-03-07T16:48:40.678Z,100212.83
2018-03-07T16:51:43.984Z,100223.98
2018-03-07T16:54:47.343Z,100232.71
2018-03-07T16:57:50.636Z,100234.23
2018-03-07T17:00:54.036Z,100236.20
2018-03-07T17:03:57.263Z,100232.26
2018-03-07T17:07:00.569Z,100238.76
2018-03-07T17:10:04.377Z,100239.55
2018-03-07T17:13:07.804Z,100242.39
2018-03-07T17:16:11.056Z,100247.93
2018-03-07T17:19:14.876Z,100259.54
2018-03-07T17:22:18.695Z,100261.48
2018-03-07T17:25:22.132Z,100263.29
2018-03-07T17:28:25.867Z,100260.79
2018-03-07T17:31:29.367Z,100265.89
2018-03-07T17:34:33.033Z,100268.17
2018-03-07T17:37:36.467Z,100266.05
2018-03-07T17:40:39.853Z,100259.46
2018-03-07T17:43:43.127Z,100266.62
2018-03-07T17:46:47.012Z,100276.67
2018-03-07T17:49:50.288Z,100277.45
2018-03-07T17:52:53.507Z,100286.85
2018-03-07T17:55:56.847Z,100290.34
2018-03-07T17:59:00.240Z,100293.80
2018-03-07T18:02:03.513Z,100305.10
2018-03-07T18:05:06.831Z,100308.79
2018-03-07T18:08:10.199Z,100315.90
2018-03-07T18:11:13.673Z,100321.12
2018-03-07T18:14:16.998Z,100325.32
2018-03-07T18:17:20.682Z,100333.63
2018-03-07T18:20:24.875Z,100341.52
2018-03-07T18:23:28.504Z,100348.47
2018-03-07T18:26:32.410Z,100346.21
2018-03-07T18:29:35.848Z,100347.20
2018-03-07T18:32:39.652Z,100358.19
2018-03-07T18:35:44.660Z,100353.63
2018-03-07T18:38:48.024Z,100355.19
2018-03-07T18:41:51.410Z,100365.51
2018-03-07T18:44:54.615Z,100367.67
2018-03-07T18:47:57.906Z,100363.68
2018-03-07T18:51:01.296Z,100357.01
2018-03-07T18:54:04.703Z,100362.28
2018-03-07T18:57:08.004Z,100362.89
2018-03-07T19:00:12.185Z,100364.68
2018-03-07T19:03:15.687Z,100367.80
2018-03-07T19:06:20.023Z,100369.34
2018-03-07T19:09:23.881Z,100374.08
2018-03-07T19:12:29.310Z,100373.47
2018-03-07T19:15:33.220Z,100370.37
2018-03-07T19:18:37.622Z,100368.54
2018-03-07T19:21:41.547Z,100366.00
2018-03-07T19:24:45.778Z,100368.06
2018-03-07T19:27:49.821Z,100376.92
2018-03-07T19:30:53.160Z,100386.02
2018-03-07T19:33:57.882Z,100386.84
2018-03-07T19:37:03.050Z,100396.56
2018-03-07T19:40:06.226Z,100398.72
2018-03-07T19:43:09.537Z,100400.75
2018-03-07T19:46:12.839Z,100406.33
2018-03-07T19:49:16.182Z,100416.70
2018-03-07T19:52:19.531Z,100423.69
2018-03-07T19:55:22.752Z,100429.99
2018-03-07T19:58:26.001Z,100429.99
2018-03-07T20:01:29.416Z,100425.52
2018-03-07T20:04:34.076Z,100433.71
2018-03-07T20:07:38.665Z,100440.06
2018-03-07T20:10:42.198Z,100447.05
2018-03-07T20:13:46.931Z,100453.33
2018-03-07T20:16:51.126Z,100457.96
2018-03-07T20:19:54.661Z,100453.90
2018-03-07T20:22:58.297Z,100459.97
2018-03-07T20:26:02.145Z,100470.87
2018-03-07T20:29:07.242Z,100477.21
2018-03-07T20:32:10.782Z,100479.12
2018-03-07T20:35:14.619Z,100481.19
2018-03-07T20:38:18.851Z,100482.72
2018-03-07T20:41:22.283Z,100489.54
2018-03-07T20:44:26.538Z,100498.71
2018-03-07T20:47:30.590Z,100496.74
2018-03-07T20:50:34.351Z,100494.58
2018-03-07T20:53:37.600Z,100499.52
2018-03-07T20:56:41.582Z,100510.80
2018-03-07T20:59:48.272Z,100511.85
2018-03-07T21:02:52.841Z,100518.24
2018-03-07T21:05:57.321Z,100524.85
2018-03-07T21:09:01.609Z,100532.42
2018-03-07T21:12:05.667Z,100541.60
2018-03-07T21:15:10.075Z,100536.32
2018-03-07T21:18:13.334Z,100539.71
2018-03-07T21:21:17.243Z,100540.90
2018-03-07T21:24:21.150Z,100550.20
2018-03-07T21:27:24.675Z,100563.06
2018-03-07T21:30:28.785Z,100567.68
2018-03-07T21:33:32.386Z,100571.00
2018-03-07T21:36:35.983Z,100583.99
2018-03-07T21:39:39.689Z,100593.48
2018-03-07T21:42:42.925Z,100595.90
2018-03-07T21:45:46.243Z,100600.48
2018-03-07T21:48:49.492Z,100605.79
2018-03-07T21:51:52.797Z,100608.03
2018-03-07T21:54:56.073Z,100616.15
2018-03-07T21:57:59.311Z,100621.59
2018-03-07T22:01:02.634Z,100624.53
2018-03-07T22:04:05.921Z,100630.64
2018-03-07T22:07:09.171Z,100629.63
2018-03-07T22:10:12.469Z,100633.08
2018-03-07T22:13:16.396Z,100639.25
2018-03-07T22:16:19.749Z,100643.79
2018-03-07T22:19:23.008Z,100645.83
2018-03-07T22:22:26.351Z,100650.50
2018-03-07T22:25:29.574Z,100647.92
2018-03-07T22:28:32.944Z,100645.10
2018-03-07T22:31:36.304Z,100646.28
2018-03-07T22:34:39.637Z,100649.60
2018-03-07T22:37:42.916Z,100647.69
2018-03-07T22:40:46.285Z,100647.06
2018-03-07T22:43:49.603Z,100649.94
2018-03-07T22:46:53.017Z,100652.66
2018-03-07T22:49:56.428Z,100651.27
2018-03-07T22:52:59.628Z,100667.16
2018-03-07T22:56:02.983Z,100667.24
2018-03-07T22:59:06.230Z,100669.84
2018-03-07T23:02:09.548Z,100673.79
2018-03-07T23:05:12.779Z,100683.86
2018-03-07T23:08:16.022Z,100688.82
2018-03-07T23:11:19.280Z,100696.19
2018-03-07T23:14:23.089Z,100699.00
2018-03-07T23:17:26.234Z,100702.23
2018-03-07T23:20:29.416Z,100701.83
2018-03-07T23:23:32.672Z,100700.62
2018-03-07T23:26:35.888Z,100703.08
2018-03-07T23:29:39.039Z,100702.52
2018-03-07T23:32:42.196Z,100707.91
2018-03-07T23:35:45.440Z,100709.52
2018-03-07T23:38:48.727Z,100712.70
2018-03-07T23:41:52.051Z,100717.43
2018-03-07T23:44:55.378Z,100714.55
2018-03-07T23:47:58.647Z,100712.81
2018-03-07T23:51:02.340Z,100724.43
2018-03-07T23:54:05.687Z,100732.61
2018-03-07T23:57:08.898Z,100738.83
